sensor_id;sensor_type;location;lat;lon;timestamp;P1;durP1;ratioP1;P2;durP2;ratioP2
42018;SDS011;27703;51.980;5.848;2023-02-15T00:01:13;27.23;;;18.25;;
42018;SDS011;27703;51.980;5.848;2023-02-15T00:03:38;33.60;;;19.75;;
42018;SDS011;27703;51.980;5.848;2023-02-15T00:06:04;32.00;;;19.23;;
42018;SDS011;27703;51.980;5.848;2023-02-15T00:08:30;31.58;;;20.08;;
42018;SDS011;27703;51.980;5.848;2023-02-15T00:11:03;33.55;;;20.58;;
42018;SDS011;27703;51.980;5.848;2023-02-15T00:13:30;31.90;;;20.50;;
42018;SDS011;27703;51.980;5.848;2023-02-15T00:16:00;36.83;;;20.55;;
42018;SDS011;27703;51.980;5.848;2023-02-15T00:18:29;33.90;;;19.42;;
42018;SDS011;27703;51.980;5.848;2023-02-15T00:20:55;34.70;;;20.42;;
42018;SDS011;27703;51.980;5.848;2023-02-15T00:23:20;32.40;;;19.85;;
42018;SDS011;27703;51.980;5.848;2023-02-15T00:25:46;34.25;;;20.45;;
42018;SDS011;27703;51.980;5.848;2023-02-15T00:28:12;33.15;;;19.88;;
42018;SDS011;27703;51.980;5.848;2023-02-15T00:30:37;32.72;;;20.33;;
42018;SDS011;27703;51.980;5.848;2023-02-15T00:33:03;32.17;;;19.90;;
42018;SDS011;27703;51.980;5.848;2023-02-15T00:35:28;33.60;;;19.98;;
42018;SDS011;27703;51.980;5.848;2023-02-15T00:37:55;39.00;;;21.38;;
42018;SDS011;27703;51.980;5.848;2023-02-15T00:40:21;40.00;;;22.48;;
42018;SDS011;27703;51.980;5.848;2023-02-15T00:42:47;33.17;;;20.30;;
42018;SDS011;27703;51.980;5.848;2023-02-15T00:45:12;36.38;;;19.13;;
42018;SDS011;27703;51.980;5.848;2023-02-15T00:47:38;32.53;;;20.27;;
42018;SDS011;27703;51.980;5.848;2023-02-15T00:50:03;28.13;;;19.08;;
42018;SDS011;27703;51.980;5.848;2023-02-15T00:52:30;31.20;;;18.13;;
42018;SDS011;27703;51.980;5.848;2023-02-15T00:54:56;30.42;;;18.05;;
42018;SDS011;27703;51.980;5.848;2023-02-15T00:57:21;28.27;;;17.25;;
42018;SDS011;27703;51.980;5.848;2023-02-15T00:59:47;32.55;;;18.42;;
42018;SDS011;27703;51.980;5.848;2023-02-15T01:02:12;28.40;;;16.75;;
42018;SDS011;27703;51.980;5.848;2023-02-15T01:04:38;28.92;;;18.58;;
42018;SDS011;27703;51.980;5.848;2023-02-15T01:07:03;33.30;;;17.10;;
42018;SDS011;27703;51.980;5.848;2023-02-15T01:09:29;33.63;;;18.30;;
42018;SDS011;27703;51.980;5.848;2023-02-15T01:11:54;31.20;;;18.00;;
42018;SDS011;27703;51.980;5.848;2023-02-15T01:14:20;31.65;;;20.00;;
42018;SDS011;27703;51.980;5.848;2023-02-15T01:16:46;33.15;;;18.88;;
42018;SDS011;27703;51.980;5.848;2023-02-15T01:19:11;31.30;;;18.08;;
42018;SDS011;27703;51.980;5.848;2023-02-15T01:21:37;28.25;;;16.70;;
42018;SDS011;27703;51.980;5.848;2023-02-15T01:24:05;36.90;;;19.40;;
42018;SDS011;27703;51.980;5.848;2023-02-15T01:26:37;28.42;;;17.73;;
42018;SDS011;27703;51.980;5.848;2023-02-15T01:29:02;27.30;;;15.77;;
42018;SDS011;27703;51.980;5.848;2023-02-15T01:31:28;28.77;;;16.08;;
42018;SDS011;27703;51.980;5.848;2023-02-15T01:33:53;26.83;;;16.05;;
42018;SDS011;27703;51.980;5.848;2023-02-15T01:36:19;30.65;;;16.73;;
42018;SDS011;27703;51.980;5.848;2023-02-15T01:38:45;26.50;;;16.77;;
42018;SDS011;27703;51.980;5.848;2023-02-15T01:41:10;27.95;;;18.58;;
42018;SDS011;27703;51.980;5.848;2023-02-15T01:43:46;25.77;;;16.73;;
42018;SDS011;27703;51.980;5.848;2023-02-15T01:46:14;26.48;;;16.02;;
42018;SDS011;27703;51.980;5.848;2023-02-15T01:48:49;25.27;;;15.75;;
42018;SDS011;27703;51.980;5.848;2023-02-15T01:51:19;23.48;;;14.18;;
42018;SDS011;27703;51.980;5.848;2023-02-15T01:56:21;24.90;;;14.20;;
42018;SDS011;27703;51.980;5.848;2023-02-15T01:58:53;22.30;;;13.88;;
42018;SDS011;27703;51.980;5.848;2023-02-15T02:01:20;24.23;;;15.70;;
42018;SDS011;27703;51.980;5.848;2023-02-15T02:06:40;23.52;;;13.98;;
42018;SDS011;27703;51.980;5.848;2023-02-15T02:09:06;22.88;;;12.93;;
42018;SDS011;27703;51.980;5.848;2023-02-15T02:11:32;25.63;;;16.17;;
42018;SDS011;27703;51.980;5.848;2023-02-15T02:13:58;25.23;;;16.50;;
42018;SDS011;27703;51.980;5.848;2023-02-15T02:24:34;22.90;;;14.77;;
42018;SDS011;27703;51.980;5.848;2023-02-15T02:30:03;28.52;;;17.75;;
42018;SDS011;27703;51.980;5.848;2023-02-15T02:40:52;27.20;;;16.60;;
42018;SDS011;27703;51.980;5.848;2023-02-15T02:46:07;30.65;;;20.23;;
42018;SDS011;27703;51.980;5.848;2023-02-15T02:48:40;32.67;;;19.60;;
42018;SDS011;27703;51.980;5.848;2023-02-15T02:51:05;27.45;;;18.25;;
42018;SDS011;27703;51.980;5.848;2023-02-15T02:53:31;30.08;;;18.65;;
42018;SDS011;27703;51.980;5.848;2023-02-15T02:58:41;24.45;;;15.48;;
42018;SDS011;27703;51.980;5.848;2023-02-15T03:01:16;29.40;;;17.02;;
42018;SDS011;27703;51.980;5.848;2023-02-15T03:03:44;25.90;;;17.48;;
42018;SDS011;27703;51.980;5.848;2023-02-15T03:07:00;30.25;;;19.20;;
42018;SDS011;27703;51.980;5.848;2023-02-15T03:09:11;33.13;;;17.90;;
42018;SDS011;27703;51.980;5.848;2023-02-15T03:11:41;27.67;;;16.67;;
42018;SDS011;27703;51.980;5.848;2023-02-15T03:14:09;28.15;;;17.13;;
42018;SDS011;27703;51.980;5.848;2023-02-15T03:16:36;28.65;;;18.13;;
42018;SDS011;27703;51.980;5.848;2023-02-15T03:19:47;27.65;;;16.17;;
42018;SDS011;27703;51.980;5.848;2023-02-15T03:21:56;30.30;;;17.17;;
42018;SDS011;27703;51.980;5.848;2023-02-15T03:24:35;23.52;;;15.98;;
42018;SDS011;27703;51.980;5.848;2023-02-15T03:27:10;26.38;;;15.20;;
42018;SDS011;27703;51.980;5.848;2023-02-15T03:29:42;24.02;;;15.40;;
42018;SDS011;27703;51.980;5.848;2023-02-15T03:32:10;24.52;;;15.05;;
42018;SDS011;27703;51.980;5.848;2023-02-15T03:34:39;23.27;;;14.70;;
42018;SDS011;27703;51.980;5.848;2023-02-15T03:37:09;28.33;;;15.70;;
42018;SDS011;27703;51.980;5.848;2023-02-15T03:44:56;26.27;;;15.07;;
42018;SDS011;27703;51.980;5.848;2023-02-15T03:47:28;25.05;;;15.90;;
42018;SDS011;27703;51.980;5.848;2023-02-15T03:50:02;24.88;;;14.18;;
42018;SDS011;27703;51.980;5.848;2023-02-15T03:53:02;25.17;;;15.65;;
42018;SDS011;27703;51.980;5.848;2023-02-15T03:55:31;28.48;;;16.90;;
42018;SDS011;27703;51.980;5.848;2023-02-15T03:57:58;29.35;;;15.48;;
42018;SDS011;27703;51.980;5.848;2023-02-15T04:00:44;26.75;;;15.13;;
42018;SDS011;27703;51.980;5.848;2023-02-15T04:03:40;28.63;;;15.95;;
42018;SDS011;27703;51.980;5.848;2023-02-15T04:06:36;25.45;;;16.20;;
42018;SDS011;27703;51.980;5.848;2023-02-15T04:09:02;24.13;;;16.77;;
42018;SDS011;27703;51.980;5.848;2023-02-15T04:11:46;23.45;;;14.57;;
42018;SDS011;27703;51.980;5.848;2023-02-15T04:14:12;27.67;;;16.55;;
42018;SDS011;27703;51.980;5.848;2023-02-15T04:16:56;26.90;;;14.85;;
42018;SDS011;27703;51.980;5.848;2023-02-15T04:19:21;28.25;;;15.20;;
42018;SDS011;27703;51.980;5.848;2023-02-15T04:22:05;27.15;;;17.08;;
42018;SDS011;27703;51.980;5.848;2023-02-15T04:24:49;25.33;;;15.27;;
42018;SDS011;27703;51.980;5.848;2023-02-15T04:27:33;22.80;;;15.23;;
42018;SDS011;27703;51.980;5.848;2023-02-15T04:29:59;25.98;;;15.52;;
42018;SDS011;27703;51.980;5.848;2023-02-15T04:32:24;27.55;;;15.25;;
42018;SDS011;27703;51.980;5.848;2023-02-15T04:34:50;28.20;;;16.58;;
42018;SDS011;27703;51.980;5.848;2023-02-15T04:37:15;30.63;;;17.67;;
42018;SDS011;27703;51.980;5.848;2023-02-15T04:39:41;31.65;;;17.27;;
42018;SDS011;27703;51.980;5.848;2023-02-15T04:42:06;25.90;;;16.38;;
42018;SDS011;27703;51.980;5.848;2023-02-15T04:44:32;28.33;;;16.33;;
42018;SDS011;27703;51.980;5.848;2023-02-15T04:46:57;28.58;;;16.45;;
42018;SDS011;27703;51.980;5.848;2023-02-15T04:49:23;24.77;;;15.73;;
42018;SDS011;27703;51.980;5.848;2023-02-15T04:51:48;26.85;;;17.42;;
42018;SDS011;27703;51.980;5.848;2023-02-15T04:54:14;30.05;;;17.58;;
42018;SDS011;27703;51.980;5.848;2023-02-15T04:56:39;29.27;;;18.92;;
42018;SDS011;27703;51.980;5.848;2023-02-15T04:59:05;32.15;;;17.63;;
42018;SDS011;27703;51.980;5.848;2023-02-15T05:01:31;31.92;;;19.42;;
42018;SDS011;27703;51.980;5.848;2023-02-15T05:03:56;31.80;;;18.20;;
42018;SDS011;27703;51.980;5.848;2023-02-15T05:06:22;27.48;;;15.40;;
42018;SDS011;27703;51.980;5.848;2023-02-15T05:08:47;29.95;;;17.05;;
42018;SDS011;27703;51.980;5.848;2023-02-15T05:11:13;34.42;;;19.73;;
42018;SDS011;27703;51.980;5.848;2023-02-15T05:13:39;27.60;;;16.85;;
42018;SDS011;27703;51.980;5.848;2023-02-15T05:16:04;26.00;;;16.27;;
42018;SDS011;27703;51.980;5.848;2023-02-15T05:18:30;23.52;;;13.57;;
42018;SDS011;27703;51.980;5.848;2023-02-15T05:20:55;27.20;;;15.77;;
42018;SDS011;27703;51.980;5.848;2023-02-15T05:23:21;26.35;;;15.52;;
42018;SDS011;27703;51.980;5.848;2023-02-15T05:25:47;27.20;;;15.55;;
42018;SDS011;27703;51.980;5.848;2023-02-15T05:31:08;24.88;;;15.23;;
42018;SDS011;27703;51.980;5.848;2023-02-15T05:33:36;25.63;;;14.73;;
42018;SDS011;27703;51.980;5.848;2023-02-15T05:36:02;30.50;;;16.42;;
42018;SDS011;27703;51.980;5.848;2023-02-15T05:38:28;25.80;;;15.50;;
42018;SDS011;27703;51.980;5.848;2023-02-15T05:40:54;29.33;;;16.35;;
42018;SDS011;27703;51.980;5.848;2023-02-15T05:43:20;33.95;;;17.73;;
42018;SDS011;27703;51.980;5.848;2023-02-15T05:45:49;26.35;;;16.15;;
42018;SDS011;27703;51.980;5.848;2023-02-15T05:48:17;26.98;;;16.20;;
42018;SDS011;27703;51.980;5.848;2023-02-15T05:50:43;24.23;;;15.85;;
42018;SDS011;27703;51.980;5.848;2023-02-15T05:53:09;31.17;;;17.65;;
42018;SDS011;27703;51.980;5.848;2023-02-15T05:55:37;28.90;;;17.20;;
42018;SDS011;27703;51.980;5.848;2023-02-15T05:58:04;30.60;;;17.38;;
42018;SDS011;27703;51.980;5.848;2023-02-15T06:00:29;26.90;;;16.60;;
42018;SDS011;27703;51.980;5.848;2023-02-15T06:02:55;26.65;;;16.05;;
42018;SDS011;27703;51.980;5.848;2023-02-15T06:05:20;26.27;;;16.63;;
42018;SDS011;27703;51.980;5.848;2023-02-15T06:07:46;28.92;;;16.85;;
42018;SDS011;27703;51.980;5.848;2023-02-15T06:10:11;26.75;;;15.93;;
42018;SDS011;27703;51.980;5.848;2023-02-15T06:12:37;27.65;;;16.02;;
42018;SDS011;27703;51.980;5.848;2023-02-15T06:15:03;30.85;;;18.35;;
42018;SDS011;27703;51.980;5.848;2023-02-15T06:17:29;29.45;;;15.48;;
42018;SDS011;27703;51.980;5.848;2023-02-15T06:19:55;33.72;;;17.25;;
42018;SDS011;27703;51.980;5.848;2023-02-15T06:22:21;27.77;;;16.70;;
42018;SDS011;27703;51.980;5.848;2023-02-15T06:24:46;31.65;;;18.58;;
42018;SDS011;27703;51.980;5.848;2023-02-15T06:27:12;31.08;;;17.05;;
42018;SDS011;27703;51.980;5.848;2023-02-15T06:29:38;37.33;;;18.92;;
42018;SDS011;27703;51.980;5.848;2023-02-15T06:32:03;30.40;;;17.40;;
42018;SDS011;27703;51.980;5.848;2023-02-15T06:34:30;29.13;;;17.15;;
42018;SDS011;27703;51.980;5.848;2023-02-15T06:36:55;30.60;;;18.40;;
42018;SDS011;27703;51.980;5.848;2023-02-15T06:39:21;28.15;;;16.13;;
42018;SDS011;27703;51.980;5.848;2023-02-15T06:41:47;33.45;;;17.63;;
42018;SDS011;27703;51.980;5.848;2023-02-15T06:44:12;29.75;;;16.27;;
42018;SDS011;27703;51.980;5.848;2023-02-15T06:46:38;29.50;;;15.35;;
42018;SDS011;27703;51.980;5.848;2023-02-15T06:49:04;29.55;;;16.50;;
42018;SDS011;27703;51.980;5.848;2023-02-15T06:51:29;32.55;;;16.33;;
42018;SDS011;27703;51.980;5.848;2023-02-15T06:53:55;28.25;;;15.25;;
42018;SDS011;27703;51.980;5.848;2023-02-15T06:56:20;29.88;;;17.23;;
42018;SDS011;27703;51.980;5.848;2023-02-15T06:58:46;29.77;;;16.90;;
42018;SDS011;27703;51.980;5.848;2023-02-15T07:01:14;28.60;;;16.88;;
42018;SDS011;27703;51.980;5.848;2023-02-15T07:03:40;28.95;;;17.23;;
42018;SDS011;27703;51.980;5.848;2023-02-15T07:06:06;28.52;;;16.63;;
42018;SDS011;27703;51.980;5.848;2023-02-15T07:08:33;34.88;;;18.92;;
42018;SDS011;27703;51.980;5.848;2023-02-15T07:11:00;31.38;;;18.45;;
42018;SDS011;27703;51.980;5.848;2023-02-15T07:13:45;31.15;;;18.45;;
42018;SDS011;27703;51.980;5.848;2023-02-15T07:16:11;32.47;;;17.50;;
42018;SDS011;27703;51.980;5.848;2023-02-15T07:18:37;28.77;;;16.70;;
42018;SDS011;27703;51.980;5.848;2023-02-15T07:21:03;33.80;;;18.45;;
42018;SDS011;27703;51.980;5.848;2023-02-15T07:23:29;33.25;;;18.73;;
42018;SDS011;27703;51.980;5.848;2023-02-15T07:26:00;33.97;;;18.70;;
42018;SDS011;27703;51.980;5.848;2023-02-15T07:28:26;34.13;;;18.20;;
42018;SDS011;27703;51.980;5.848;2023-02-15T07:30:52;31.20;;;17.10;;
42018;SDS011;27703;51.980;5.848;2023-02-15T07:33:18;28.25;;;17.15;;
42018;SDS011;27703;51.980;5.848;2023-02-15T07:35:53;31.27;;;19.27;;
42018;SDS011;27703;51.980;5.848;2023-02-15T07:38:20;31.38;;;18.45;;
42018;SDS011;27703;51.980;5.848;2023-02-15T07:40:46;29.75;;;17.15;;
42018;SDS011;27703;51.980;5.848;2023-02-15T07:43:12;35.70;;;20.08;;
42018;SDS011;27703;51.980;5.848;2023-02-15T07:45:38;33.78;;;18.58;;
42018;SDS011;27703;51.980;5.848;2023-02-15T07:48:04;31.85;;;18.23;;
42018;SDS011;27703;51.980;5.848;2023-02-15T07:50:31;31.90;;;18.80;;
42018;SDS011;27703;51.980;5.848;2023-02-15T07:52:57;28.02;;;16.48;;
42018;SDS011;27703;51.980;5.848;2023-02-15T07:55:23;35.80;;;18.02;;
42018;SDS011;27703;51.980;5.848;2023-02-15T07:57:49;33.47;;;18.10;;
42018;SDS011;27703;51.980;5.848;2023-02-15T08:00:16;36.10;;;20.52;;
42018;SDS011;27703;51.980;5.848;2023-02-15T08:02:48;34.08;;;19.75;;
42018;SDS011;27703;51.980;5.848;2023-02-15T08:05:34;35.45;;;21.02;;
42018;SDS011;27703;51.980;5.848;2023-02-15T08:08:00;39.72;;;20.98;;
42018;SDS011;27703;51.980;5.848;2023-02-15T08:10:26;32.15;;;20.35;;
42018;SDS011;27703;51.980;5.848;2023-02-15T08:13:11;34.30;;;18.95;;
42018;SDS011;27703;51.980;5.848;2023-02-15T08:15:37;34.83;;;19.92;;
42018;SDS011;27703;51.980;5.848;2023-02-15T08:18:02;36.47;;;19.90;;
42018;SDS011;27703;51.980;5.848;2023-02-15T08:20:28;40.15;;;21.00;;
42018;SDS011;27703;51.980;5.848;2023-02-15T08:22:54;40.25;;;22.45;;
42018;SDS011;27703;51.980;5.848;2023-02-15T08:25:19;36.00;;;20.10;;
42018;SDS011;27703;51.980;5.848;2023-02-15T08:27:45;36.28;;;20.05;;
42018;SDS011;27703;51.980;5.848;2023-02-15T08:30:10;35.03;;;19.83;;
42018;SDS011;27703;51.980;5.848;2023-02-15T08:32:38;31.40;;;18.88;;
42018;SDS011;27703;51.980;5.848;2023-02-15T08:35:04;39.75;;;23.40;;
42018;SDS011;27703;51.980;5.848;2023-02-15T08:37:30;34.30;;;20.63;;
42018;SDS011;27703;51.980;5.848;2023-02-15T08:39:55;40.58;;;22.30;;
42018;SDS011;27703;51.980;5.848;2023-02-15T08:42:21;34.50;;;20.05;;
42018;SDS011;27703;51.980;5.848;2023-02-15T08:44:46;35.97;;;21.42;;
42018;SDS011;27703;51.980;5.848;2023-02-15T08:47:15;36.67;;;21.08;;
42018;SDS011;27703;51.980;5.848;2023-02-15T08:49:40;34.30;;;19.88;;
42018;SDS011;27703;51.980;5.848;2023-02-15T08:52:06;33.10;;;19.55;;
42018;SDS011;27703;51.980;5.848;2023-02-15T08:54:32;42.40;;;23.45;;
42018;SDS011;27703;51.980;5.848;2023-02-15T08:56:57;33.28;;;17.58;;
42018;SDS011;27703;51.980;5.848;2023-02-15T08:59:23;32.25;;;18.88;;
42018;SDS011;27703;51.980;5.848;2023-02-15T09:01:51;35.20;;;19.63;;
42018;SDS011;27703;51.980;5.848;2023-02-15T09:04:18;37.85;;;20.67;;
42018;SDS011;27703;51.980;5.848;2023-02-15T09:06:45;35.65;;;20.77;;
42018;SDS011;27703;51.980;5.848;2023-02-15T09:09:12;33.25;;;20.10;;
42018;SDS011;27703;51.980;5.848;2023-02-15T09:11:39;35.63;;;22.65;;
42018;SDS011;27703;51.980;5.848;2023-02-15T09:14:16;42.10;;;24.20;;
42018;SDS011;27703;51.980;5.848;2023-02-15T09:16:45;39.67;;;23.38;;
42018;SDS011;27703;51.980;5.848;2023-02-15T09:19:13;37.28;;;23.48;;
42018;SDS011;27703;51.980;5.848;2023-02-15T09:21:39;45.72;;;24.83;;
42018;SDS011;27703;51.980;5.848;2023-02-15T09:24:06;43.55;;;25.55;;
42018;SDS011;27703;51.980;5.848;2023-02-15T09:26:34;36.45;;;22.73;;
42018;SDS011;27703;51.980;5.848;2023-02-15T09:29:02;42.92;;;24.15;;
42018;SDS011;27703;51.980;5.848;2023-02-15T09:31:42;39.58;;;22.88;;
42018;SDS011;27703;51.980;5.848;2023-02-15T09:34:14;33.92;;;21.77;;
42018;SDS011;27703;51.980;5.848;2023-02-15T09:36:42;36.80;;;21.23;;
42018;SDS011;27703;51.980;5.848;2023-02-15T09:39:29;35.67;;;21.50;;
42018;SDS011;27703;51.980;5.848;2023-02-15T09:50:10;43.40;;;24.13;;
42018;SDS011;27703;51.980;5.848;2023-02-15T10:01:26;38.08;;;21.73;;
42018;SDS011;27703;51.980;5.848;2023-02-15T10:04:09;42.10;;;23.30;;
42018;SDS011;27703;51.980;5.848;2023-02-15T10:09:51;41.40;;;23.50;;
42018;SDS011;27703;51.980;5.848;2023-02-15T10:12:32;39.85;;;23.83;;
42018;SDS011;27703;51.980;5.848;2023-02-15T10:20:55;39.17;;;23.95;;
42018;SDS011;27703;51.980;5.848;2023-02-15T10:29:36;43.75;;;24.45;;
42018;SDS011;27703;51.980;5.848;2023-02-15T10:40:40;37.80;;;23.17;;
42018;SDS011;27703;51.980;5.848;2023-02-15T10:49:13;36.38;;;22.30;;
42018;SDS011;27703;51.980;5.848;2023-02-15T11:00:22;36.67;;;21.90;;
42018;SDS011;27703;51.980;5.848;2023-02-15T11:03:02;36.90;;;22.92;;
42018;SDS011;27703;51.980;5.848;2023-02-15T11:08:22;39.85;;;22.42;;
42018;SDS011;27703;51.980;5.848;2023-02-15T11:10:52;43.70;;;25.33;;
42018;SDS011;27703;51.980;5.848;2023-02-15T11:13:26;40.55;;;23.38;;
42018;SDS011;27703;51.980;5.848;2023-02-15T11:18:34;39.80;;;24.10;;
42018;SDS011;27703;51.980;5.848;2023-02-15T11:23:51;43.08;;;25.25;;
42018;SDS011;27703;51.980;5.848;2023-02-15T11:31:46;39.88;;;22.95;;
42018;SDS011;27703;51.980;5.848;2023-02-15T11:34:38;34.30;;;21.65;;
42018;SDS011;27703;51.980;5.848;2023-02-15T11:37:17;35.13;;;22.02;;
42018;SDS011;27703;51.980;5.848;2023-02-15T11:39:45;41.97;;;25.00;;
42018;SDS011;27703;51.980;5.848;2023-02-15T11:42:17;37.95;;;23.50;;
42018;SDS011;27703;51.980;5.848;2023-02-15T11:47:42;42.80;;;24.92;;
42018;SDS011;27703;51.980;5.848;2023-02-15T11:50:14;44.55;;;26.00;;
42018;SDS011;27703;51.980;5.848;2023-02-15T11:52:43;45.20;;;26.92;;
42018;SDS011;27703;51.980;5.848;2023-02-15T11:55:12;43.55;;;26.23;;
42018;SDS011;27703;51.980;5.848;2023-02-15T11:57:43;44.58;;;25.80;;
42018;SDS011;27703;51.980;5.848;2023-02-15T12:00:22;42.90;;;24.88;;
42018;SDS011;27703;51.980;5.848;2023-02-15T12:02:56;38.88;;;22.50;;
42018;SDS011;27703;51.980;5.848;2023-02-15T12:05:23;43.20;;;24.50;;
42018;SDS011;27703;51.980;5.848;2023-02-15T12:07:57;40.33;;;24.17;;
42018;SDS011;27703;51.980;5.848;2023-02-15T12:10:29;39.20;;;23.23;;
42018;SDS011;27703;51.980;5.848;2023-02-15T12:13:16;38.47;;;22.42;;
42018;SDS011;27703;51.980;5.848;2023-02-15T12:15:47;39.67;;;20.27;;
42018;SDS011;27703;51.980;5.848;2023-02-15T12:18:19;37.15;;;22.92;;
42018;SDS011;27703;51.980;5.848;2023-02-15T12:21:02;46.15;;;25.45;;
42018;SDS011;27703;51.980;5.848;2023-02-15T12:23:33;39.45;;;23.10;;
42018;SDS011;27703;51.980;5.848;2023-02-15T12:26:04;43.22;;;23.42;;
42018;SDS011;27703;51.980;5.848;2023-02-15T12:28:34;44.42;;;25.58;;
42018;SDS011;27703;51.980;5.848;2023-02-15T12:31:19;41.20;;;24.52;;
42018;SDS011;27703;51.980;5.848;2023-02-15T12:33:48;41.60;;;24.45;;
42018;SDS011;27703;51.980;5.848;2023-02-15T12:36:17;45.78;;;26.10;;
42018;SDS011;27703;51.980;5.848;2023-02-15T12:39:02;38.20;;;22.95;;
42018;SDS011;27703;51.980;5.848;2023-02-15T12:41:37;35.90;;;22.60;;
42018;SDS011;27703;51.980;5.848;2023-02-15T12:44:16;44.38;;;27.20;;
42018;SDS011;27703;51.980;5.848;2023-02-15T12:47:29;44.08;;;27.17;;
42018;SDS011;27703;51.980;5.848;2023-02-15T12:49:31;40.45;;;24.85;;
42018;SDS011;27703;51.980;5.848;2023-02-15T12:51:59;41.78;;;25.85;;
42018;SDS011;27703;51.980;5.848;2023-02-15T12:54:33;42.20;;;27.02;;
42018;SDS011;27703;51.980;5.848;2023-02-15T12:57:34;35.83;;;24.10;;
42018;SDS011;27703;51.980;5.848;2023-02-15T13:00:01;42.38;;;24.67;;
42018;SDS011;27703;51.980;5.848;2023-02-15T13:02:48;41.97;;;24.65;;
42018;SDS011;27703;51.980;5.848;2023-02-15T13:07:58;37.78;;;23.23;;
42018;SDS011;27703;51.980;5.848;2023-02-15T13:10:53;39.97;;;24.00;;
42018;SDS011;27703;51.980;5.848;2023-02-15T13:13:24;38.15;;;24.02;;
42018;SDS011;27703;51.980;5.848;2023-02-15T13:15:53;41.80;;;25.30;;
42018;SDS011;27703;51.980;5.848;2023-02-15T13:18:33;41.15;;;24.20;;
42018;SDS011;27703;51.980;5.848;2023-02-15T13:21:20;38.90;;;24.02;;
42018;SDS011;27703;51.980;5.848;2023-02-15T13:23:56;41.20;;;24.65;;
42018;SDS011;27703;51.980;5.848;2023-02-15T13:26:26;40.05;;;24.05;;
42018;SDS011;27703;51.980;5.848;2023-02-15T13:28:57;48.65;;;26.35;;
42018;SDS011;27703;51.980;5.848;2023-02-15T13:31:30;40.13;;;24.40;;
42018;SDS011;27703;51.980;5.848;2023-02-15T13:36:29;37.40;;;24.65;;
42018;SDS011;27703;51.980;5.848;2023-02-15T13:41:58;44.17;;;25.05;;
42018;SDS011;27703;51.980;5.848;2023-02-15T13:47:40;41.22;;;25.45;;
42018;SDS011;27703;51.980;5.848;2023-02-15T13:55:49;33.53;;;22.27;;
42018;SDS011;27703;51.980;5.848;2023-02-15T14:01:06;44.70;;;23.67;;
42018;SDS011;27703;51.980;5.848;2023-02-15T14:17:28;38.38;;;23.25;;
42018;SDS011;27703;51.980;5.848;2023-02-15T14:23:21;38.20;;;23.90;;
42018;SDS011;27703;51.980;5.848;2023-02-15T14:25:58;36.03;;;21.45;;
42018;SDS011;27703;51.980;5.848;2023-02-15T14:28:33;38.50;;;22.80;;
42018;SDS011;27703;51.980;5.848;2023-02-15T14:31:06;34.42;;;21.60;;
42018;SDS011;27703;51.980;5.848;2023-02-15T14:33:39;39.03;;;22.92;;
42018;SDS011;27703;51.980;5.848;2023-02-15T14:36:09;40.05;;;23.10;;
42018;SDS011;27703;51.980;5.848;2023-02-15T14:38:44;38.47;;;22.98;;
42018;SDS011;27703;51.980;5.848;2023-02-15T14:41:37;33.80;;;21.73;;
42018;SDS011;27703;51.980;5.848;2023-02-15T14:49:33;33.60;;;20.35;;
42018;SDS011;27703;51.980;5.848;2023-02-15T14:52:03;33.17;;;21.25;;
42018;SDS011;27703;51.980;5.848;2023-02-15T14:59:25;30.48;;;19.33;;
42018;SDS011;27703;51.980;5.848;2023-02-15T15:04:39;30.63;;;19.83;;
42018;SDS011;27703;51.980;5.848;2023-02-15T15:07:21;32.63;;;21.33;;
42018;SDS011;27703;51.980;5.848;2023-02-15T15:15:34;34.53;;;21.20;;
42018;SDS011;27703;51.980;5.848;2023-02-15T15:18:10;33.45;;;20.33;;
42018;SDS011;27703;51.980;5.848;2023-02-15T15:21:07;31.38;;;19.27;;
42018;SDS011;27703;51.980;5.848;2023-02-15T15:23:38;32.92;;;19.63;;
42018;SDS011;27703;51.980;5.848;2023-02-15T15:26:23;36.75;;;20.63;;
42018;SDS011;27703;51.980;5.848;2023-02-15T15:28:55;32.63;;;18.83;;
42018;SDS011;27703;51.980;5.848;2023-02-15T15:39:20;33.35;;;19.65;;
42018;SDS011;27703;51.980;5.848;2023-02-15T15:45:24;37.08;;;20.42;;
42018;SDS011;27703;51.980;5.848;2023-02-15T15:50:38;31.63;;;20.05;;
42018;SDS011;27703;51.980;5.848;2023-02-15T15:53:05;32.95;;;19.33;;
42018;SDS011;27703;51.980;5.848;2023-02-15T15:55:40;28.48;;;18.95;;
42018;SDS011;27703;51.980;5.848;2023-02-15T15:58:06;29.52;;;19.02;;
42018;SDS011;27703;51.980;5.848;2023-02-15T16:00:43;34.58;;;19.80;;
42018;SDS011;27703;51.980;5.848;2023-02-15T16:03:14;36.95;;;21.08;;
42018;SDS011;27703;51.980;5.848;2023-02-15T16:05:41;34.17;;;20.25;;
42018;SDS011;27703;51.980;5.848;2023-02-15T16:08:06;35.88;;;20.90;;
42018;SDS011;27703;51.980;5.848;2023-02-15T16:10:32;34.45;;;19.45;;
42018;SDS011;27703;51.980;5.848;2023-02-15T16:12:59;33.97;;;20.65;;
42018;SDS011;27703;51.980;5.848;2023-02-15T16:15:29;30.15;;;19.10;;
42018;SDS011;27703;51.980;5.848;2023-02-15T16:18:00;34.72;;;20.67;;
42018;SDS011;27703;51.980;5.848;2023-02-15T16:20:30;35.00;;;21.17;;
42018;SDS011;27703;51.980;5.848;2023-02-15T16:28:06;29.10;;;18.25;;
42018;SDS011;27703;51.980;5.848;2023-02-15T16:33:10;28.20;;;18.38;;
42018;SDS011;27703;51.980;5.848;2023-02-15T16:35:38;29.85;;;19.65;;
42018;SDS011;27703;51.980;5.848;2023-02-15T16:38:06;31.73;;;20.17;;
42018;SDS011;27703;51.980;5.848;2023-02-15T16:40:46;37.75;;;20.15;;
42018;SDS011;27703;51.980;5.848;2023-02-15T16:43:23;29.90;;;19.50;;
42018;SDS011;27703;51.980;5.848;2023-02-15T16:45:52;33.55;;;20.08;;
42018;SDS011;27703;51.980;5.848;2023-02-15T16:48:27;33.58;;;19.63;;
42018;SDS011;27703;51.980;5.848;2023-02-15T16:50:53;31.73;;;20.45;;
42018;SDS011;27703;51.980;5.848;2023-02-15T16:53:25;32.65;;;20.08;;
42018;SDS011;27703;51.980;5.848;2023-02-15T16:55:54;35.60;;;22.00;;
42018;SDS011;27703;51.980;5.848;2023-02-15T16:58:26;33.20;;;20.75;;
42018;SDS011;27703;51.980;5.848;2023-02-15T17:01:10;35.10;;;21.98;;
42018;SDS011;27703;51.980;5.848;2023-02-15T17:03:38;36.10;;;21.95;;
42018;SDS011;27703;51.980;5.848;2023-02-15T17:06:16;38.22;;;22.77;;
42018;SDS011;27703;51.980;5.848;2023-02-15T17:08:45;38.10;;;23.23;;
42018;SDS011;27703;51.980;5.848;2023-02-15T17:16:29;38.40;;;22.48;;
42018;SDS011;27703;51.980;5.848;2023-02-15T17:18:56;41.90;;;24.55;;
42018;SDS011;27703;51.980;5.848;2023-02-15T17:21:25;43.50;;;23.92;;
42018;SDS011;27703;51.980;5.848;2023-02-15T17:24:02;39.28;;;22.27;;
42018;SDS011;27703;51.980;5.848;2023-02-15T17:26:35;35.60;;;21.63;;
42018;SDS011;27703;51.980;5.848;2023-02-15T17:31:47;39.58;;;23.15;;
42018;SDS011;27703;51.980;5.848;2023-02-15T17:37:12;37.90;;;21.70;;
42018;SDS011;27703;51.980;5.848;2023-02-15T17:39:47;40.88;;;23.45;;
42018;SDS011;27703;51.980;5.848;2023-02-15T17:42:13;39.20;;;22.48;;
42018;SDS011;27703;51.980;5.848;2023-02-15T17:44:38;38.05;;;22.42;;
42018;SDS011;27703;51.980;5.848;2023-02-15T17:47:04;41.22;;;23.60;;
42018;SDS011;27703;51.980;5.848;2023-02-15T17:49:30;38.58;;;21.80;;
42018;SDS011;27703;51.980;5.848;2023-02-15T17:51:59;35.80;;;21.20;;
42018;SDS011;27703;51.980;5.848;2023-02-15T17:54:28;39.10;;;21.58;;
42018;SDS011;27703;51.980;5.848;2023-02-15T17:57:12;37.75;;;21.65;;